Terminal Aerodrome Forecast
Issued by NWS Atlanta, GA

Home | Current Version | Previous Version | Text Only | Print | Product List | Glossary On
Versions: 1 2 3 4 5 6 7 8 9 10 11 12 13 14 15 16 17 18 19 20 21 22 23 24 25 26 27 28 29 30 31 32 33 34 35 36 37 38 39 40 41
295
FTUS42 KFFC 290736 AAA
TAFATL
TAF AMD
KATL 290736Z 2908/3012 09004KT P6SM FEW150 BKN250
     FM291000 05004KT P6SM SCT250
     FM291400 34005KT P6SM FEW040 SCT120
     FM291800 35007KT P6SM SCT060 SCT120
     FM292300 35006KT P6SM FEW080
     FM300300 03004KT P6SM SKC
     FM300800 34003KT P6SM SKC=

USA.gov is the U.S. government's official web portal to all federal, state and local government web resources and services.